SBSTSBRJ

Guest
Details From SBST - BASE AEREA DE SANTOS
To SBRJ - Santos-Dumont
Flight Number -
Tags generated
Created
Modified
Stats Distance 183 nm / 339 km
Max Altitude 23,700 ft / 7,224 m
Waypoints 4
Social Downloads 3
Likes 0
Share VATSIM

Download

Looking for another format? Having issues loading an existing format? Contact us
Advertisement - Login to hide

Notes

Basic altitude profile: - Ascent Rate: 2500ft/min - Ascent Speed: 250kts - Cruise Altitude: 35000ft - Cruise Speed: 420kts - Descent Rate: 1500ft/min - Descent Speed: 250kts Options: - Use NATs: yes - Use PACOTS: yes - Use low airways: yes - Use high airways: yes

Route

SBST USABA UW50 BOTOM SBRJ

ID Type Via Altitude Latitude Longitude Leg Dist Tot Dist Heading (true) Name
O SBST APT - 0 ft / 0 m -23.92520˚ -46.28750˚ - 0 nm - BASE AEREA DE SANTOS
USABA FIX - 23,700 ft / 7,224 m -23.52967˚ -45.05083˚ 72 nm 72 nm 71° / 70° -
BOTOM FIX UW50 (AWY-HI) 23,500 ft / 7,163 m -23.27833˚ -44.06867˚ 56 nm 128 nm 75° / 74° -
O SBRJ APT - 0 ft / 0 m -22.91046˚ -43.16313˚ 54 nm 182 nm 66° / 66° Santos-Dumont

Altitude Profile

Advertisement - Login to hide

Weather


0- 5 10 15 20 25 30 35+ Temperature / ° C

Clouds and Precipitation
Forecast for 2018-05-21 18:00 UTC. Updated 4 hours ago

Ground ~20,000 ft ~40,000 ft Winds

SBST

Details ICAO SBST (SSZ)
Name BASE AEREA DE SANTOS
Region Brazil
Timezone America/Sao_Paulo (UTC-3.0)
Stats Elevation 10 ft / 3 m (AMSL)
Location -23.925204° -46.287498°
Runways 1
Magnetic Variation 21.457° W

METAR

SBST 212100Z 12002KT 2500 BR SCT030 SCT038 17/15 Q1017

Decode

TAF

Not found

Departure Runways

ID Width Length Bearing (true) Bearing (mag) Surface Threshold Offset Overrun Length
17 148 ft / 45 m 4,574 ft / 1,394 m 148.78° 170.24° Asphalt 0 ft / 0 m 0 ft / 0 m
35 148 ft / 45 m 4,574 ft / 1,394 m 328.78° 350.24° Asphalt 0 ft / 0 m 0 ft / 0 m

SBRJ

Details ICAO SBRJ (SDU)
Name Santos-Dumont
Region Brazil
Timezone Unknown (UTC+0.0)
Stats Elevation 11 ft / 3 m (AMSL)
Location -22.910460° -43.163133°
Runways 2
Magnetic Variation 22.825° W

METAR

SBRJ 212100Z 18010KT CAVOK 21/13 Q1017

Decode

TAF

TAF SBRJ 211430Z 2118/2206 20015KT CAVOK TX24/2118Z TN17/2206Z BECMG 2119/2121 17010KT BECMG 2122/2124 31005KT BECMG 2204/2206 35005KT 8000 NSC RMK PGS

Decode

Destination Runways

ID Width Length Bearing (true) Bearing (mag) Surface Threshold Offset Overrun Length
02L 98 ft / 30 m 4,154 ft / 1,266 m 358.02° 20.84° Asphalt 0 ft / 0 m 80 ft / 24 m
02R 138 ft / 42 m 4,361 ft / 1,329 m 358.01° 20.83° Asphalt 0 ft / 0 m 80 ft / 24 m
20L 138 ft / 42 m 4,361 ft / 1,329 m 178.01° 200.83° Asphalt 0 ft / 0 m 80 ft / 24 m
20R 98 ft / 30 m 4,154 ft / 1,266 m 178.02° 200.84° Asphalt 0 ft / 0 m 95 ft / 29 m

Approach Navaids

Runway Type Ident Frequency Range Bearing (true) Bearing (mag) Slope Elevation
20L Localiser IRJ 111.10 MHz 18 nm / 33 km 172.42° 195.25° - 11 ft / 3 m (AMSL)

Popular Alternatives